createdAt,value
2019-02-16T00:01:03.748Z,1013.79
2019-02-16T00:02:13.552Z,1013.79
2019-02-16T00:03:23.907Z,1013.75
2019-02-16T00:04:33.715Z,1013.73
2019-02-16T00:05:43.518Z,1013.71
2019-02-16T00:06:53.601Z,1013.71
2019-02-16T00:08:05.921Z,1013.69
2019-02-16T00:09:15.990Z,1013.69
2019-02-16T00:10:26.061Z,1013.7
2019-02-16T00:11:36.118Z,1013.67
2019-02-16T00:12:45.958Z,1013.71
2019-02-16T00:13:55.999Z,1013.69
2019-02-16T00:15:07.769Z,1013.69
2019-02-16T00:16:17.830Z,1013.73
2019-02-16T00:17:27.896Z,1013.77
2019-02-16T00:18:38.443Z,1013.81
2019-02-16T00:19:48.551Z,1013.79
2019-02-16T00:21:03.888Z,1013.79
2019-02-16T00:22:14.611Z,1013.81
2019-02-16T00:23:24.480Z,1013.81
2019-02-16T00:24:34.310Z,1013.78
2019-02-16T00:25:44.561Z,1013.78
2019-02-16T00:26:54.346Z,1013.78
2019-02-16T00:28:04.138Z,1013.73
2019-02-16T00:29:14.319Z,1013.75
2019-02-16T00:30:24.384Z,1013.75
2019-02-16T00:31:34.454Z,1013.73
2019-02-16T00:32:44.558Z,1013.73
2019-02-16T00:33:56.329Z,1013.68
2019-02-16T00:35:06.407Z,1013.69
2019-02-16T00:36:16.479Z,1013.7
2019-02-16T00:37:26.620Z,1013.71
2019-02-16T00:38:37.222Z,1013.72
2019-02-16T00:39:47.493Z,1013.73
2019-02-16T00:40:57.555Z,1013.72
2019-02-16T00:42:07.620Z,1013.74
2019-02-16T00:43:17.803Z,1013.75
2019-02-16T00:44:30.106Z,1013.73
2019-02-16T00:45:41.108Z,1013.67
2019-02-16T00:46:51.180Z,1013.68
2019-02-16T00:48:01.236Z,1013.63
2019-02-16T00:49:11.320Z,1013.65
2019-02-16T00:50:21.499Z,1013.6
2019-02-16T00:51:31.287Z,1013.63
2019-02-16T00:52:41.369Z,1013.6
2019-02-16T00:53:51.433Z,1013.6
2019-02-16T00:55:01.500Z,1013.58
2019-02-16T00:56:11.850Z,1013.56
2019-02-16T00:57:21.898Z,1013.53
2019-02-16T00:58:31.975Z,1013.53
2019-02-16T00:59:42.236Z,1013.52
2019-02-16T01:00:52.342Z,1013.54
2019-02-16T01:02:02.419Z,1013.53
2019-02-16T01:03:12.485Z,1013.52
2019-02-16T01:04:22.602Z,1013.52
2019-02-16T01:05:32.655Z,1013.5
2019-02-16T01:06:42.713Z,1013.47
2019-02-16T01:07:52.818Z,1013.42
2019-02-16T01:09:03.934Z,1013.46
2019-02-16T01:10:14.043Z,1013.45
2019-02-16T01:11:23.919Z,1013.4
2019-02-16T01:12:33.971Z,1013.41
2019-02-16T01:13:43.780Z,1013.41
2019-02-16T01:14:53.857Z,1013.41
2019-02-16T01:16:05.659Z,1013.34
2019-02-16T01:17:16.262Z,1013.34
2019-02-16T01:18:26.579Z,1013.34
2019-02-16T01:19:36.670Z,1013.3
2019-02-16T01:20:46.740Z,1013.24
2019-02-16T01:21:56.794Z,1013.27
2019-02-16T01:23:06.864Z,1013.21
2019-02-16T01:24:16.933Z,1013.25
2019-02-16T01:25:27.050Z,1013.22
2019-02-16T01:26:37.101Z,1013.19
2019-02-16T01:27:47.408Z,1013.18
2019-02-16T01:28:57.528Z,1013.18
2019-02-16T01:30:07.322Z,1013.17
2019-02-16T01:31:17.396Z,1013.14
2019-02-16T01:32:27.476Z,1013.1
2019-02-16T01:33:37.597Z,1013.07
2019-02-16T01:34:48.586Z,1013.05
2019-02-16T01:35:58.697Z,1013.05
2019-02-16T01:37:08.765Z,1013.03
2019-02-16T01:38:18.825Z,1013.09
2019-02-16T01:39:28.875Z,1013.1
2019-02-16T01:40:39.024Z,1013.05
2019-02-16T01:41:49.096Z,1013.1
2019-02-16T01:42:59.172Z,1013.08
2019-02-16T01:44:09.227Z,1013.05
2019-02-16T01:45:19.494Z,1013.05
2019-02-16T01:46:29.553Z,1013.06
2019-02-16T01:47:39.606Z,1013
2019-02-16T01:48:49.497Z,1012.98
2019-02-16T01:49:59.607Z,1012.92
2019-02-16T01:51:09.860Z,1012.94
2019-02-16T01:52:19.909Z,1012.9
2019-02-16T01:53:30.001Z,1012.87
2019-02-16T01:54:40.062Z,1012.85
2019-02-16T01:55:49.861Z,1012.88
2019-02-16T01:57:02.710Z,1012.84
2019-02-16T01:58:12.767Z,1012.85
2019-02-16T01:59:22.883Z,1012.84
2019-02-16T02:00:32.985Z,1012.81
2019-02-16T02:01:42.784Z,1012.85
2019-02-16T02:02:52.849Z,1012.81
2019-02-16T02:04:02.914Z,1012.76
2019-02-16T02:05:12.969Z,1012.75
2019-02-16T02:06:22.957Z,1012.72
2019-02-16T02:07:32.779Z,1012.74
2019-02-16T02:08:42.838Z,1012.77
2019-02-16T02:09:52.886Z,1012.7
2019-02-16T02:11:02.895Z,1012.67
2019-02-16T02:12:12.999Z,1012.69
2019-02-16T02:13:23.054Z,1012.67
2019-02-16T02:14:32.857Z,1012.68
2019-02-16T02:15:42.661Z,1012.67
2019-02-16T02:16:52.727Z,1012.71
2019-02-16T02:18:03.075Z,1012.7
2019-02-16T02:19:13.135Z,1012.68
2019-02-16T02:20:23.257Z,1012.67
2019-02-16T02:21:40.795Z,1012.65
2019-02-16T02:22:50.764Z,1012.66
2019-02-16T02:24:00.841Z,1012.68
2019-02-16T02:25:10.896Z,1012.67
2019-02-16T02:26:20.701Z,1012.72
2019-02-16T02:27:30.493Z,1012.74
2019-02-16T02:28:40.559Z,1012.67
2019-02-16T02:29:50.699Z,1012.71
2019-02-16T02:31:02.692Z,1012.69
2019-02-16T02:32:12.791Z,1012.71
2019-02-16T02:33:23.134Z,1012.67
2019-02-16T02:34:33.203Z,1012.7
2019-02-16T02:35:43.275Z,1012.68
2019-02-16T02:36:53.361Z,1012.71
2019-02-16T02:38:05.467Z,1012.69
2019-02-16T02:39:15.267Z,1012.73
2019-02-16T02:40:25.326Z,1012.71
2019-02-16T02:41:35.130Z,1012.74
2019-02-16T02:42:44.922Z,1012.7
2019-02-16T02:43:54.727Z,1012.71
2019-02-16T02:45:04.801Z,1012.7
2019-02-16T02:46:14.883Z,1012.69
2019-02-16T02:47:25.026Z,1012.68
2019-02-16T02:48:35.091Z,1012.67
2019-02-16T02:49:45.001Z,1012.67
2019-02-16T02:50:54.793Z,1012.67
2019-02-16T02:52:04.664Z,1012.69
2019-02-16T02:53:14.680Z,1012.65
2019-02-16T02:54:33.892Z,1012.67
2019-02-16T02:55:43.971Z,1012.68
2019-02-16T02:56:54.062Z,1012.65
2019-02-16T02:58:03.878Z,1012.66
2019-02-16T02:59:13.949Z,1012.64
2019-02-16T03:00:24.009Z,1012.63
2019-02-16T03:01:34.064Z,1012.6
2019-02-16T03:33:43.283Z,1012.75
2019-02-16T03:34:53.388Z,1012.77
2019-02-16T03:36:05.421Z,1012.78
2019-02-16T03:37:15.513Z,1012.75
2019-02-16T03:38:25.539Z,1012.77
2019-02-16T03:39:35.452Z,1012.76
2019-02-16T03:40:45.731Z,1012.75
2019-02-16T03:41:55.767Z,1012.78
2019-02-16T03:43:05.573Z,1012.74
2019-02-16T03:44:15.854Z,1012.77
2019-02-16T03:45:26.004Z,1012.76
2019-02-16T03:46:36.093Z,1012.77
2019-02-16T03:47:46.150Z,1012.76
2019-02-16T03:48:56.637Z,1012.72
2019-02-16T03:50:08.390Z,1012.71
2019-02-16T03:51:18.256Z,1012.73
2019-02-16T03:52:28.326Z,1012.71
2019-02-16T03:53:38.604Z,1012.66
2019-02-16T03:54:48.915Z,1012.66
2019-02-16T03:55:59.027Z,1012.66
2019-02-16T03:57:09.973Z,1012.67
2019-02-16T03:58:20.264Z,1012.68
2019-02-16T03:59:30.575Z,1012.7
2019-02-16T04:00:40.770Z,1012.7
2019-02-16T04:01:50.828Z,1012.69
2019-02-16T04:03:02.996Z,1012.71
2019-02-16T04:04:13.093Z,1012.7
2019-02-16T04:05:23.164Z,1012.65
2019-02-16T04:06:33.224Z,1012.65
2019-02-16T04:07:43.326Z,1012.62
2019-02-16T04:08:53.416Z,1012.58
2019-02-16T04:10:03.673Z,1012.61
2019-02-16T04:11:13.750Z,1012.55
2019-02-16T04:12:23.618Z,1012.56
2019-02-16T04:13:33.673Z,1012.56
2019-02-16T04:14:43.230Z,1012.62
2019-02-16T04:15:53.072Z,1012.63
2019-02-16T04:17:04.104Z,1012.63
2019-02-16T04:18:14.031Z,1012.58
2019-02-16T04:19:23.850Z,1012.62
2019-02-16T04:20:33.972Z,1012.6
2019-02-16T04:21:44.045Z,1012.63
2019-02-16T04:22:54.137Z,1012.61
2019-02-16T04:24:04.218Z,1012.59
2019-02-16T04:25:14.281Z,1012.59
2019-02-16T04:26:24.332Z,1012.58
2019-02-16T04:27:34.527Z,1012.62
2019-02-16T04:28:44.586Z,1012.61
2019-02-16T04:29:54.368Z,1012.58
2019-02-16T04:31:04.175Z,1012.64
2019-02-16T04:32:14.224Z,1012.61
2019-02-16T04:33:24.302Z,1012.58
2019-02-16T04:34:34.355Z,1012.61
2019-02-16T04:35:44.164Z,1012.59
2019-02-16T04:36:54.251Z,1012.56
2019-02-16T04:38:04.304Z,1012.59
2019-02-16T04:39:14.420Z,1012.57
2019-02-16T04:40:23.967Z,1012.56
2019-02-16T04:41:34.073Z,1012.59
2019-02-16T04:42:44.181Z,1012.62
2019-02-16T04:43:54.268Z,1012.57
2019-02-16T04:45:04.334Z,1012.65
2019-02-16T04:46:14.580Z,1012.61
2019-02-16T04:47:24.420Z,1012.65
2019-02-16T04:48:34.214Z,1012.63
2019-02-16T04:49:44.335Z,1012.67
2019-02-16T04:50:54.436Z,1012.67
2019-02-16T04:52:04.531Z,1012.63
2019-02-16T04:53:14.313Z,1012.68
2019-02-16T04:54:24.115Z,1012.64
2019-02-16T04:55:34.173Z,1012.7
2019-02-16T04:56:44.015Z,1012.65
2019-02-16T04:57:53.809Z,1012.66
2019-02-16T04:59:03.678Z,1012.64
2019-02-16T05:00:13.770Z,1012.66
2019-02-16T05:01:23.862Z,1012.58
2019-02-16T05:02:34.198Z,1012.61
2019-02-16T05:03:44.356Z,1012.52
2019-02-16T05:04:54.150Z,1012.56
2019-02-16T05:06:04.218Z,1012.55
2019-02-16T05:07:14.120Z,1012.58
2019-02-16T05:08:24.190Z,1012.6
2019-02-16T05:09:34.242Z,1012.62
2019-02-16T05:10:44.561Z,1012.59
2019-02-16T05:11:54.753Z,1012.58
2019-02-16T05:13:04.643Z,1012.54
2019-02-16T05:14:14.720Z,1012.55
2019-02-16T05:15:24.825Z,1012.57
2019-02-16T05:16:34.613Z,1012.52
2019-02-16T05:17:44.773Z,1012.56
2019-02-16T05:18:54.917Z,1012.58
2019-02-16T05:20:04.984Z,1012.58
2019-02-16T05:21:15.040Z,1012.58
2019-02-16T05:22:24.833Z,1012.59
2019-02-16T05:23:44.650Z,1012.63
2019-02-16T05:24:54.590Z,1012.66
2019-02-16T05:26:04.940Z,1012.67
2019-02-16T05:27:14.760Z,1012.69
2019-02-16T05:28:24.838Z,1012.69
2019-02-16T05:29:34.942Z,1012.71
2019-02-16T05:30:44.763Z,1012.74
2019-02-16T05:31:54.628Z,1012.72
2019-02-16T05:33:04.694Z,1012.72
2019-02-16T05:34:14.496Z,1012.7
2019-02-16T05:35:24.318Z,1012.76
2019-02-16T05:36:34.306Z,1012.8
2019-02-16T05:37:44.418Z,1012.77
2019-02-16T05:38:54.509Z,1012.83
2019-02-16T05:40:04.562Z,1012.84
2019-02-16T05:41:14.362Z,1012.8
2019-02-16T05:42:24.428Z,1012.83
2019-02-16T05:43:34.512Z,1012.86
2019-02-16T05:44:44.307Z,1012.83
2019-02-16T05:45:54.599Z,1012.82
2019-02-16T05:47:04.744Z,1012.92
2019-02-16T05:48:14.837Z,1012.91
2019-02-16T05:49:25.142Z,1012.92
2019-02-16T05:50:34.931Z,1012.95
2019-02-16T05:51:44.726Z,1012.96
2019-02-16T05:52:54.841Z,1012.99
2019-02-16T05:54:04.479Z,1012.95
2019-02-16T05:55:14.525Z,1012.97
2019-02-16T05:56:24.343Z,1012.95
2019-02-16T05:57:34.409Z,1012.98
2019-02-16T05:58:44.729Z,1012.98
2019-02-16T05:59:54.809Z,1012.99
2019-02-16T06:01:04.956Z,1013.02
2019-02-16T06:02:15.024Z,1013.05
2019-02-16T06:03:25.052Z,1013.08
2019-02-16T06:04:35.199Z,1013.08
2019-02-16T06:05:45.350Z,1013.1
2019-02-16T06:06:55.419Z,1013.08
2019-02-16T06:08:07.923Z,1013.12
2019-02-16T06:09:18.041Z,1013.13
2019-02-16T06:10:27.688Z,1013.14
2019-02-16T06:11:38.067Z,1013.18
2019-02-16T06:12:48.172Z,1013.2
2019-02-16T06:13:57.744Z,1013.24
2019-02-16T06:15:07.811Z,1013.22
2019-02-16T06:16:17.858Z,1013.24
2019-02-16T06:17:27.663Z,1013.21
2019-02-16T06:18:37.461Z,1013.16
2019-02-16T06:19:47.521Z,1013.22
2019-02-16T06:20:57.565Z,1013.2
2019-02-16T06:22:10.410Z,1013.23
2019-02-16T06:23:20.458Z,1013.23
2019-02-16T06:24:30.282Z,1013.27
2019-02-16T06:25:40.339Z,1013.3
2019-02-16T06:26:50.642Z,1013.26
2019-02-16T06:28:03.466Z,1013.3
2019-02-16T06:29:13.521Z,1013.28
2019-02-16T06:30:23.591Z,1013.32
2019-02-16T06:31:33.688Z,1013.32
2019-02-16T06:32:43.766Z,1013.34
2019-02-16T06:33:53.605Z,1013.35
2019-02-16T06:35:04.367Z,1013.34
2019-02-16T06:36:14.532Z,1013.38
2019-02-16T06:37:24.350Z,1013.36
2019-02-16T06:38:34.611Z,1013.35
2019-02-16T06:39:44.688Z,1013.37
2019-02-16T06:40:54.849Z,1013.35
2019-02-16T06:42:04.942Z,1013.36
2019-02-16T06:43:15.016Z,1013.39
2019-02-16T06:44:25.375Z,1013.38
2019-02-16T06:45:35.436Z,1013.39
2019-02-16T06:46:45.240Z,1013.42
2019-02-16T06:47:55.350Z,1013.46
2019-02-16T06:49:05.635Z,1013.48
2019-02-16T06:50:16.078Z,1013.47
2019-02-16T06:51:26.137Z,1013.49
2019-02-16T06:52:36.209Z,1013.5
2019-02-16T06:53:46.008Z,1013.5
2019-02-16T06:54:55.589Z,1013.54
2019-02-16T06:56:05.877Z,1013.54
2019-02-16T06:57:15.938Z,1013.56
2019-02-16T06:58:25.990Z,1013.56
2019-02-16T06:59:36.314Z,1013.62
2019-02-16T07:00:46.375Z,1013.62
2019-02-16T07:01:56.431Z,1013.6
2019-02-16T07:03:06.548Z,1013.63
2019-02-16T07:04:16.607Z,1013.62
2019-02-16T07:05:26.661Z,1013.6
2019-02-16T07:06:36.811Z,1013.58
2019-02-16T07:07:47.318Z,1013.59
2019-02-16T07:08:57.432Z,1013.63
2019-02-16T07:10:08.520Z,1013.58
2019-02-16T07:11:18.603Z,1013.62
2019-02-16T07:12:28.427Z,1013.68
2019-02-16T07:13:38.687Z,1013.71
2019-02-16T07:14:49.095Z,1013.73
2019-02-16T07:15:59.163Z,1013.74
2019-02-16T07:17:09.704Z,1013.72
2019-02-16T07:18:19.880Z,1013.65
2019-02-16T07:19:29.671Z,1013.67
2019-02-16T07:20:39.565Z,1013.66
2019-02-16T07:21:49.636Z,1013.61
2019-02-16T07:22:59.507Z,1013.68
2019-02-16T07:24:09.310Z,1013.65
2019-02-16T07:25:19.627Z,1013.7
2019-02-16T07:26:29.412Z,1013.66
2019-02-16T07:27:39.473Z,1013.7
2019-02-16T07:28:49.535Z,1013.72
2019-02-16T07:29:59.872Z,1013.7
2019-02-16T07:31:09.932Z,1013.69
2019-02-16T07:32:21.286Z,1013.68
2019-02-16T07:33:31.103Z,1013.65
2019-02-16T07:34:41.417Z,1013.64
2019-02-16T07:35:51.516Z,1013.65
2019-02-16T07:37:01.632Z,1013.61
2019-02-16T07:38:11.702Z,1013.62
2019-02-16T07:39:21.950Z,1013.6
2019-02-16T07:40:32.008Z,1013.65
2019-02-16T07:41:42.142Z,1013.63
2019-02-16T07:42:52.487Z,1013.61
2019-02-16T07:44:03.991Z,1013.63
2019-02-16T07:45:14.900Z,1013.6
2019-02-16T07:46:26.397Z,1013.6
2019-02-16T07:47:37.531Z,1013.62
2019-02-16T07:48:48.817Z,1013.59
2019-02-16T07:49:59.641Z,1013.57
2019-02-16T07:51:12.800Z,1013.57
2019-02-16T07:52:24.218Z,1013.57
2019-02-16T07:53:35.084Z,1013.59
2019-02-16T07:54:45.998Z,1013.6
2019-02-16T07:55:56.753Z,1013.63
2019-02-16T07:57:11.071Z,1013.62
2019-02-16T07:58:26.378Z,1013.63
2019-02-16T07:59:37.064Z,1013.67
2019-02-16T08:00:47.402Z,1013.66
2019-02-16T08:01:57.520Z,1013.65
2019-02-16T08:03:08.515Z,1013.61
2019-02-16T08:04:18.380Z,1013.68
2019-02-16T08:05:28.446Z,1013.67
2019-02-16T08:06:38.598Z,1013.61
2019-02-16T08:07:48.961Z,1013.65
2019-02-16T08:08:59.134Z,1013.64
2019-02-16T08:10:11.332Z,1013.63
2019-02-16T08:11:21.467Z,1013.62
2019-02-16T08:12:32.560Z,1013.61
2019-02-16T08:13:42.785Z,1013.61
2019-02-16T08:14:52.594Z,1013.65
2019-02-16T08:16:02.682Z,1013.56
2019-02-16T08:17:12.493Z,1013.59
2019-02-16T08:18:22.290Z,1013.54
2019-02-16T08:19:32.090Z,1013.51
2019-02-16T08:20:42.145Z,1013.48
2019-02-16T08:21:52.243Z,1013.49
2019-02-16T08:23:02.314Z,1013.5
2019-02-16T08:24:12.123Z,1013.5
2019-02-16T08:25:22.192Z,1013.5
2019-02-16T08:26:31.995Z,1013.48
2019-02-16T08:27:42.054Z,1013.47
2019-02-16T08:28:52.144Z,1013.47
2019-02-16T08:30:02.202Z,1013.44
2019-02-16T08:31:11.996Z,1013.45
2019-02-16T08:32:22.041Z,1013.43
2019-02-16T08:33:31.867Z,1013.42
2019-02-16T08:34:41.696Z,1013.43
2019-02-16T08:35:51.520Z,1013.43
2019-02-16T08:37:01.384Z,1013.4
2019-02-16T08:38:11.193Z,1013.41
2019-02-16T08:39:21.246Z,1013.38
2019-02-16T08:40:31.335Z,1013.39
2019-02-16T08:41:41.429Z,1013.35
2019-02-16T08:42:51.508Z,1013.38
2019-02-16T08:44:03.117Z,1013.39
2019-02-16T08:45:12.927Z,1013.39
2019-02-16T08:46:22.727Z,1013.37
2019-02-16T08:47:32.852Z,1013.37
2019-02-16T08:48:42.719Z,1013.39
2019-02-16T08:49:52.771Z,1013.37
2019-02-16T08:51:02.818Z,1013.42
2019-02-16T08:52:12.870Z,1013.38
2019-02-16T08:53:23.021Z,1013.35
2019-02-16T08:54:33.085Z,1013.36
2019-02-16T08:55:42.897Z,1013.32
2019-02-16T08:56:54.487Z,1013.37
2019-02-16T08:58:06.018Z,1013.33
2019-02-16T08:59:16.735Z,1013.33
2019-02-16T09:00:26.546Z,1013.34
2019-02-16T09:01:36.605Z,1013.34
2019-02-16T09:02:46.723Z,1013.32
2019-02-16T09:03:56.539Z,1013.36
2019-02-16T09:05:06.707Z,1013.35
2019-02-16T09:06:16.860Z,1013.33
2019-02-16T09:07:27.434Z,1013.31
2019-02-16T09:08:37.733Z,1013.33
2019-02-16T09:09:47.804Z,1013.33
2019-02-16T09:10:57.891Z,1013.32
2019-02-16T09:12:08.031Z,1013.31
2019-02-16T09:13:17.861Z,1013.29
2019-02-16T09:14:27.995Z,1013.3
2019-02-16T09:15:38.329Z,1013.34
2019-02-16T09:16:48.425Z,1013.33
2019-02-16T09:17:58.489Z,1013.3
2019-02-16T09:19:08.570Z,1013.31
2019-02-16T09:20:18.834Z,1013.33
2019-02-16T09:21:28.674Z,1013.33
2019-02-16T09:22:38.811Z,1013.32
2019-02-16T09:23:48.640Z,1013.25
2019-02-16T09:25:06.916Z,1013.23
2019-02-16T09:26:16.740Z,1013.26
2019-02-16T09:27:26.818Z,1013.21
2019-02-16T09:28:37.009Z,1013.24
2019-02-16T09:29:46.822Z,1013.28
2019-02-16T09:30:57.040Z,1013.25
2019-02-16T09:32:07.286Z,1013.28
2019-02-16T09:33:18.814Z,1013.24
2019-02-16T09:34:28.387Z,1013.19
2019-02-16T09:35:38.446Z,1013.19
2019-02-16T09:36:48.744Z,1013.18
2019-02-16T09:37:58.622Z,1013.17
2019-02-16T09:39:09.512Z,1013.18
2019-02-16T09:40:19.437Z,1013.18
2019-02-16T09:41:29.514Z,1013.2
2019-02-16T09:42:39.601Z,1013.15
2019-02-16T09:43:49.661Z,1013.2
2019-02-16T09:44:59.494Z,1013.16
2019-02-16T09:46:09.586Z,1013.16
2019-02-16T09:47:19.668Z,1013.19
2019-02-16T09:48:30.215Z,1013.16
2019-02-16T09:49:40.735Z,1013.17
2019-02-16T09:50:50.853Z,1013.19
2019-02-16T09:52:01.451Z,1013.17
2019-02-16T09:53:11.797Z,1013.15
2019-02-16T09:54:21.874Z,1013.13
2019-02-16T09:55:32.178Z,1013.15
2019-02-16T09:56:42.535Z,1013.12
2019-02-16T09:57:52.620Z,1013.16
2019-02-16T09:59:03.247Z,1013.1
2019-02-16T10:00:13.981Z,1013.13
2019-02-16T10:01:24.214Z,1013.11
2019-02-16T10:02:34.524Z,1013.13
2019-02-16T10:03:44.609Z,1013.13
2019-02-16T10:04:54.692Z,1013.09
2019-02-16T10:06:04.547Z,1013.12
2019-02-16T10:07:14.799Z,1013.14
2019-02-16T10:08:24.872Z,1013.12
2019-02-16T10:09:34.985Z,1013.16
2019-02-16T10:10:45.067Z,1013.15
2019-02-16T10:11:55.342Z,1013.13
2019-02-16T10:13:05.414Z,1013.14
2019-02-16T10:14:15.506Z,1013.08
2019-02-16T10:15:26.005Z,1013.08
2019-02-16T10:16:36.089Z,1013.11
2019-02-16T10:17:46.171Z,1013.07
2019-02-16T10:18:56.652Z,1013.12
2019-02-16T10:20:06.715Z,1013.09
2019-02-16T10:21:16.588Z,1013.05
2019-02-16T10:22:26.669Z,1013.09
2019-02-16T10:23:36.747Z,1013.07
2019-02-16T10:24:47.053Z,1013.03
2019-02-16T10:25:56.883Z,1013.01
2019-02-16T10:27:06.954Z,1013.01
2019-02-16T10:28:17.057Z,1013.04
2019-02-16T10:29:27.127Z,1013
2019-02-16T10:30:37.466Z,1012.99
2019-02-16T10:31:47.295Z,1012.94
2019-02-16T10:32:57.616Z,1012.94
2019-02-16T10:34:08.501Z,1012.93
2019-02-16T10:35:18.595Z,1012.9
2019-02-16T10:36:29.316Z,1012.91
2019-02-16T10:37:39.608Z,1012.9
2019-02-16T10:38:49.440Z,1012.93
2019-02-16T10:39:59.627Z,1012.92
2019-02-16T10:41:09.763Z,1012.93
2019-02-16T10:42:19.869Z,1012.87
2019-02-16T10:43:29.945Z,1012.86
2019-02-16T10:44:40.430Z,1012.86
2019-02-16T10:45:50.740Z,1012.84
2019-02-16T10:47:02.482Z,1012.83
2019-02-16T10:48:12.570Z,1012.77
2019-02-16T10:49:22.388Z,1012.76
2019-02-16T10:50:32.442Z,1012.73
2019-02-16T10:51:42.262Z,1012.77
2019-02-16T10:52:52.550Z,1012.72
2019-02-16T10:54:02.608Z,1012.71
2019-02-16T10:55:12.691Z,1012.71
2019-02-16T10:56:22.849Z,1012.69
2019-02-16T10:57:32.720Z,1012.72
2019-02-16T10:58:42.801Z,1012.72
2019-02-16T10:59:52.620Z,1012.71
2019-02-16T11:01:02.474Z,1012.69
2019-02-16T11:02:12.102Z,1012.68
2019-02-16T11:03:22.516Z,1012.65
2019-02-16T11:04:38.098Z,1012.62
2019-02-16T11:05:48.393Z,1012.66
2019-02-16T11:06:58.466Z,1012.6
2019-02-16T11:08:10.582Z,1012.64
2019-02-16T11:09:20.708Z,1012.6
2019-02-16T11:10:30.807Z,1012.55
2019-02-16T11:11:40.863Z,1012.55
2019-02-16T11:12:52.921Z,1012.54
2019-02-16T11:14:03.013Z,1012.53
2019-02-16T11:15:12.594Z,1012.54
2019-02-16T11:16:22.645Z,1012.54
2019-02-16T11:17:32.495Z,1012.54
2019-02-16T11:18:42.776Z,1012.51
2019-02-16T11:19:53.199Z,1012.52
2019-02-16T11:21:03.695Z,1012.51
2019-02-16T11:22:13.965Z,1012.54
2019-02-16T11:23:24.320Z,1012.52
2019-02-16T11:24:36.176Z,1012.5
2019-02-16T11:25:46.691Z,1012.5
2019-02-16T11:26:56.865Z,1012.46
2019-02-16T11:28:06.965Z,1012.46
2019-02-16T11:29:17.038Z,1012.44
2019-02-16T11:30:27.122Z,1012.48
2019-02-16T11:31:37.196Z,1012.49
2019-02-16T11:32:47.491Z,1012.47
2019-02-16T11:33:57.581Z,1012.46
2019-02-16T11:35:10.218Z,1012.48
2019-02-16T11:36:20.434Z,1012.49
2019-02-16T11:37:30.325Z,1012.49
2019-02-16T11:38:40.402Z,1012.43
2019-02-16T11:39:50.492Z,1012.46
2019-02-16T11:41:00.359Z,1012.45
2019-02-16T11:42:19.348Z,1012.42
2019-02-16T11:43:29.423Z,1012.45
2019-02-16T11:44:41.599Z,1012.42
2019-02-16T11:45:51.966Z,1012.42
2019-02-16T11:47:02.066Z,1012.46
2019-02-16T11:48:12.145Z,1012.45
2019-02-16T11:49:22.240Z,1012.45
2019-02-16T11:50:32.069Z,1012.44
2019-02-16T11:51:42.149Z,1012.43
2019-02-16T11:52:52.327Z,1012.4
2019-02-16T11:54:02.399Z,1012.41
2019-02-16T11:55:12.546Z,1012.38
2019-02-16T11:56:22.890Z,1012.34
2019-02-16T11:57:32.996Z,1012.35
2019-02-16T11:58:43.585Z,1012.35
2019-02-16T11:59:53.684Z,1012.34
2019-02-16T12:01:03.993Z,1012.34
2019-02-16T12:02:14.108Z,1012.26
2019-02-16T12:03:24.190Z,1012.28
2019-02-16T12:04:34.732Z,1012.29
2019-02-16T12:05:44.817Z,1012.25
2019-02-16T12:06:55.163Z,1012.24
2019-02-16T12:08:06.034Z,1012.25
2019-02-16T12:09:16.481Z,1012.21
2019-02-16T12:10:26.642Z,1012.21
2019-02-16T12:11:36.916Z,1012.18
2019-02-16T12:12:47.059Z,1012.16
2019-02-16T12:13:57.139Z,1012.11
2019-02-16T12:15:06.931Z,1012.12
2019-02-16T12:16:16.771Z,1012.08
2019-02-16T12:17:26.880Z,1012.08
2019-02-16T12:18:36.979Z,1012.07
2019-02-16T12:19:47.061Z,1012.04
2019-02-16T12:20:57.148Z,1012.04
2019-02-16T12:22:07.472Z,1012.02
2019-02-16T12:23:17.803Z,1011.96
2019-02-16T12:24:27.985Z,1011.98
2019-02-16T12:25:37.801Z,1011.99
2019-02-16T12:26:48.126Z,1011.95
2019-02-16T12:27:58.145Z,1011.91
2019-02-16T12:29:09.895Z,1011.88
2019-02-16T12:30:20.037Z,1011.86
2019-02-16T12:31:30.119Z,1011.86
2019-02-16T12:32:40.232Z,1011.83
2019-02-16T12:33:50.310Z,1011.83
2019-02-16T12:35:00.384Z,1011.86
2019-02-16T12:36:10.424Z,1011.88
2019-02-16T12:37:22.481Z,1011.91
2019-02-16T12:38:32.321Z,1011.89
2019-02-16T12:39:42.182Z,1011.88
2019-02-16T12:40:52.260Z,1011.9
2019-02-16T12:42:02.370Z,1011.88
2019-02-16T12:43:12.475Z,1011.88
2019-02-16T12:44:22.897Z,1011.86
2019-02-16T12:45:32.993Z,1011.86
2019-02-16T12:46:51.709Z,1011.84
2019-02-16T12:48:04.024Z,1011.86
2019-02-16T12:49:14.815Z,1011.83
2019-02-16T12:50:24.935Z,1011.82
2019-02-16T12:51:34.999Z,1011.8
2019-02-16T12:52:45.536Z,1011.82
2019-02-16T12:53:55.646Z,1011.84
2019-02-16T12:55:14.144Z,1011.79
2019-02-16T12:56:24.437Z,1011.77
2019-02-16T12:57:34.757Z,1011.71
2019-02-16T12:58:44.846Z,1011.7
2019-02-16T12:59:54.680Z,1011.68
2019-02-16T13:01:04.612Z,1011.66
2019-02-16T13:02:14.738Z,1011.66
2019-02-16T13:03:25.273Z,1011.66
2019-02-16T13:04:35.635Z,1011.6
2019-02-16T13:05:45.276Z,1011.65
2019-02-16T13:06:55.363Z,1011.64
2019-02-16T13:08:08.530Z,1011.66
2019-02-16T13:09:19.074Z,1011.65
2019-02-16T13:10:29.191Z,1011.65
2019-02-16T13:11:39.290Z,1011.66
2019-02-16T13:12:49.609Z,1011.62
2019-02-16T13:13:59.465Z,1011.64
2019-02-16T13:15:09.569Z,1011.64
2019-02-16T13:16:19.656Z,1011.58
2019-02-16T13:17:29.764Z,1011.56
2019-02-16T13:18:39.411Z,1011.57
2019-02-16T13:19:49.536Z,1011.55
2019-02-16T13:20:59.366Z,1011.52
2019-02-16T13:22:09.417Z,1011.5
2019-02-16T13:23:19.730Z,1011.5
2019-02-16T13:24:29.814Z,1011.54
2019-02-16T13:25:39.882Z,1011.53
2019-02-16T13:26:49.976Z,1011.55
2019-02-16T13:27:59.536Z,1011.52
2019-02-16T13:29:11.344Z,1011.52
2019-02-16T13:30:21.186Z,1011.5
2019-02-16T13:31:31.523Z,1011.48
2019-02-16T13:32:41.683Z,1011.49
2019-02-16T13:33:51.503Z,1011.44
2019-02-16T13:35:02.800Z,1011.44
2019-02-16T13:36:13.129Z,1011.45
2019-02-16T13:37:23.212Z,1011.45
2019-02-16T13:38:33.290Z,1011.44
2019-02-16T13:39:43.401Z,1011.41
2019-02-16T13:40:53.932Z,1011.39
2019-02-16T13:42:06.067Z,1011.43
2019-02-16T13:43:16.346Z,1011.45
2019-02-16T13:44:27.432Z,1011.43
2019-02-16T13:45:37.590Z,1011.43
2019-02-16T13:46:47.423Z,1011.38
2019-02-16T13:47:57.507Z,1011.39
2019-02-16T13:49:07.349Z,1011.41
2019-02-16T13:50:17.477Z,1011.39
2019-02-16T13:51:28.250Z,1011.39
2019-02-16T13:52:38.585Z,1011.36
2019-02-16T13:53:48.668Z,1011.4
2019-02-16T13:54:58.770Z,1011.4
2019-02-16T13:56:12.302Z,1011.41
2019-02-16T13:57:22.115Z,1011.37
2019-02-16T13:58:32.261Z,1011.36
2019-02-16T13:59:41.884Z,1011.4
2019-02-16T14:00:52.073Z,1011.39
2019-02-16T14:02:02.395Z,1011.42
2019-02-16T14:03:13.627Z,1011.44
2019-02-16T14:04:23.975Z,1011.43
2019-02-16T14:05:34.339Z,1011.4
2019-02-16T14:06:44.890Z,1011.42
2019-02-16T14:07:55.051Z,1011.43
2019-02-16T14:09:06.571Z,1011.4
2019-02-16T14:10:16.880Z,1011.37
2019-02-16T14:11:27.088Z,1011.35
2019-02-16T14:12:37.687Z,1011.37
2019-02-16T14:13:47.762Z,1011.38
2019-02-16T14:14:57.859Z,1011.38
2019-02-16T14:16:08.945Z,1011.34
2019-02-16T14:17:19.112Z,1011.3
2019-02-16T14:18:28.965Z,1011.32
2019-02-16T14:19:39.494Z,1011.33
2019-02-16T14:20:49.587Z,1011.35
2019-02-16T14:21:59.680Z,1011.31
2019-02-16T14:23:10.420Z,1011.33
2019-02-16T14:24:20.935Z,1011.32
2019-02-16T14:25:31.047Z,1011.3
2019-02-16T14:26:51.149Z,1011.33
2019-02-16T14:28:03.506Z,1011.32
2019-02-16T14:29:13.763Z,1011.27
2019-02-16T14:30:24.129Z,1011.21
2019-02-16T14:31:34.214Z,1011.22
2019-02-16T14:32:44.312Z,1011.23
2019-02-16T14:33:54.401Z,1011.2
2019-02-16T14:35:05.001Z,1011.18
2019-02-16T14:36:15.111Z,1011.16
2019-02-16T14:37:26.021Z,1011.19
2019-02-16T14:38:35.971Z,1011.15
2019-02-16T14:39:46.157Z,1011.16
2019-02-16T14:40:56.326Z,1011.13
2019-02-16T14:42:06.489Z,1011.13
2019-02-16T14:43:16.612Z,1011.18
2019-02-16T14:44:26.910Z,1011.12
2019-02-16T14:45:37.046Z,1011.13